createdAt,value
2022-11-21T00:01:28.780Z,22.47
2022-11-21T00:03:55.760Z,27.03
2022-11-21T00:06:24.803Z,23.97
2022-11-21T00:08:54.529Z,20.87
2022-11-21T00:11:23.531Z,20.37
2022-11-21T00:13:50.408Z,25.97
2022-11-21T00:16:19.813Z,23.17
2022-11-21T00:18:46.694Z,24.37
2022-11-21T00:21:17.520Z,21.77
2022-11-21T00:23:46.155Z,20.00
2022-11-21T00:26:15.328Z,23.90
2022-11-21T00:28:45.545Z,24.80
2022-11-21T00:31:26.029Z,20.97
2022-11-21T00:33:52.947Z,20.63
2022-11-21T00:36:19.883Z,22.73
2022-11-21T00:38:46.779Z,23.10
2022-11-21T00:41:19.227Z,21.20
2022-11-21T00:43:49.106Z,22.70
2022-11-21T00:46:18.429Z,21.43
2022-11-21T00:48:48.425Z,19.60
2022-11-21T00:51:15.412Z,20.30
2022-11-21T00:53:44.808Z,21.37
2022-11-21T00:56:14.648Z,21.40
2022-11-21T00:58:43.682Z,19.87
2022-11-21T01:01:14.564Z,22.00
2022-11-21T01:03:42.803Z,18.47
2022-11-21T01:06:15.186Z,20.13
2022-11-21T01:08:47.109Z,19.80
2022-11-21T01:11:17.677Z,20.27
2022-11-21T01:13:51.171Z,23.97
2022-11-21T01:16:21.834Z,20.17
2022-11-21T01:18:50.931Z,19.83
2022-11-21T01:21:32.570Z,19.40
2022-11-21T01:24:01.313Z,20.60
2022-11-21T01:26:30.223Z,19.87
2022-11-21T01:28:58.527Z,20.40
2022-11-21T01:31:30.476Z,21.20
2022-11-21T01:33:59.254Z,19.40
2022-11-21T01:36:32.917Z,19.33
2022-11-21T01:39:05.773Z,18.70
2022-11-21T01:41:35.269Z,19.10
2022-11-21T01:44:23.407Z,19.90
2022-11-21T01:46:51.904Z,20.07
2022-11-21T01:49:29.542Z,17.60
2022-11-21T01:52:08.434Z,18.53
2022-11-21T01:55:03.510Z,20.00
2022-11-21T01:57:37.420Z,18.77
2022-11-21T02:00:12.856Z,19.83
2022-11-21T02:02:47.200Z,19.80
2022-11-21T02:05:21.263Z,19.30
2022-11-21T02:07:52.556Z,19.17
2022-11-21T02:10:19.484Z,20.17
2022-11-21T02:12:58.367Z,18.87
2022-11-21T02:15:30.297Z,19.10
2022-11-21T02:17:57.423Z,19.07
2022-11-21T02:20:31.114Z,18.37
2022-11-21T02:23:23.511Z,20.00
2022-11-21T02:25:54.189Z,19.90
2022-11-21T02:28:23.631Z,19.77
2022-11-21T02:30:53.028Z,19.77
2022-11-21T02:33:24.661Z,20.70
2022-11-21T02:36:03.820Z,19.10
2022-11-21T02:38:39.834Z,20.47
2022-11-21T02:41:26.575Z,19.57
2022-11-21T02:43:59.984Z,19.70
2022-11-21T02:46:35.091Z,18.63
2022-11-21T02:49:07.958Z,19.43
2022-11-21T02:51:34.824Z,20.20
2022-11-21T02:54:01.811Z,19.03
2022-11-21T02:56:29.179Z,20.53
2022-11-21T02:58:56.330Z,19.73
2022-11-21T03:01:25.332Z,18.90
2022-11-21T03:03:52.245Z,18.93
2022-11-21T03:06:19.114Z,20.57
2022-11-21T03:08:46.527Z,20.47
2022-11-21T03:11:15.841Z,19.83
2022-11-21T03:13:44.845Z,20.50
2022-11-21T03:16:11.671Z,20.80
2022-11-21T03:18:41.515Z,22.60
2022-11-21T03:21:11.425Z,20.80
2022-11-21T03:23:38.272Z,21.53
2022-11-21T03:26:05.143Z,20.50
2022-11-21T03:28:34.108Z,20.60
2022-11-21T03:31:01.018Z,20.30
2022-11-21T03:33:27.885Z,19.23
2022-11-21T03:35:57.220Z,21.63
2022-11-21T03:38:24.117Z,20.10
2022-11-21T03:40:53.196Z,19.80
2022-11-21T03:43:20.099Z,20.57
2022-11-21T03:45:49.446Z,20.33
2022-11-21T03:48:19.395Z,18.90
2022-11-21T03:50:48.324Z,19.03
2022-11-21T03:53:17.665Z,17.67
2022-11-21T03:55:44.538Z,18.13
2022-11-21T03:58:11.473Z,18.40
2022-11-21T04:00:40.523Z,19.13
2022-11-21T04:03:07.353Z,19.03
2022-11-21T04:05:36.461Z,20.20
2022-11-21T04:08:03.312Z,19.33
2022-11-21T04:10:30.175Z,18.17
2022-11-21T04:13:01.627Z,18.43
2022-11-21T04:15:30.607Z,19.03
2022-11-21T04:18:02.097Z,19.67
2022-11-21T04:20:31.908Z,19.80
2022-11-21T04:23:45.667Z,19.10
2022-11-21T04:26:12.515Z,18.57
2022-11-21T04:28:39.647Z,19.10
2022-11-21T04:31:10.780Z,17.50
2022-11-21T04:33:41.840Z,19.33
2022-11-21T04:36:11.923Z,19.10
2022-11-21T04:38:38.780Z,18.00
2022-11-21T04:41:05.660Z,17.40
2022-11-21T04:43:32.578Z,18.50
2022-11-21T04:45:59.457Z,18.67
2022-11-21T04:48:26.298Z,18.67
2022-11-21T04:50:53.182Z,20.30
2022-11-21T04:53:20.056Z,20.17
2022-11-21T04:55:49.969Z,20.20
2022-11-21T04:58:16.845Z,20.40
2022-11-21T05:00:43.858Z,16.37
2022-11-21T05:03:10.991Z,18.70
2022-11-21T05:05:38.020Z,18.10
2022-11-21T05:08:05.201Z,18.33
2022-11-21T05:10:54.307Z,17.20
2022-11-21T05:13:23.713Z,17.50
2022-11-21T05:15:59.791Z,18.27
2022-11-21T05:18:26.646Z,18.97
2022-11-21T05:20:53.582Z,18.43
2022-11-21T05:23:20.426Z,18.23
2022-11-21T05:25:47.311Z,18.73
2022-11-21T05:28:16.729Z,18.37
2022-11-21T05:30:45.899Z,18.13
2022-11-21T05:33:12.765Z,16.67
2022-11-21T05:35:43.148Z,16.80
2022-11-21T05:38:10.719Z,17.60
2022-11-21T05:40:37.762Z,17.70
2022-11-21T05:43:22.987Z,17.10
2022-11-21T05:45:53.573Z,17.80
2022-11-21T05:48:24.034Z,16.57
2022-11-21T05:50:50.974Z,17.60
2022-11-21T05:53:20.504Z,17.03
2022-11-21T05:55:49.950Z,18.63
2022-11-21T05:58:19.840Z,16.60
2022-11-21T06:00:46.770Z,16.73
2022-11-21T06:03:30.515Z,17.63
2022-11-21T06:06:10.739Z,18.20
2022-11-21T06:08:44.001Z,17.50
2022-11-21T06:11:14.014Z,18.17
2022-11-21T06:13:42.103Z,16.33
2022-11-21T06:16:15.650Z,15.73
2022-11-21T06:18:47.636Z,16.70
2022-11-21T06:21:25.745Z,15.50
2022-11-21T06:24:00.160Z,15.93
2022-11-21T06:26:28.082Z,16.13
2022-11-21T06:28:58.251Z,16.17
2022-11-21T06:31:27.485Z,16.40
2022-11-21T06:33:59.406Z,18.60
2022-11-21T06:36:27.146Z,18.30
2022-11-21T06:38:56.964Z,16.30
2022-11-21T06:41:27.069Z,15.20
2022-11-21T06:43:53.925Z,18.27
2022-11-21T06:46:23.341Z,17.07
2022-11-21T06:48:50.168Z,17.20
2022-11-21T06:51:25.105Z,16.33
2022-11-21T06:54:01.445Z,16.13
2022-11-21T06:56:30.789Z,15.83
2022-11-21T06:58:58.522Z,15.37
2022-11-21T07:01:30.589Z,15.77
2022-11-21T07:03:57.541Z,16.00
2022-11-21T07:06:24.583Z,15.20
2022-11-21T07:09:31.072Z,21.53
2022-11-21T07:11:46.542Z,18.60
2022-11-21T07:14:18.125Z,20.57
2022-11-21T07:16:45.007Z,17.93
2022-11-21T07:19:12.044Z,15.20
2022-11-21T07:21:39.048Z,15.57
2022-11-21T07:24:06.383Z,15.30
2022-11-21T07:26:35.349Z,16.70
2022-11-21T07:29:02.371Z,15.90
2022-11-21T07:31:33.881Z,17.50
2022-11-21T07:34:02.972Z,18.93
2022-11-21T07:36:32.431Z,16.33
2022-11-21T07:39:02.911Z,16.60
2022-11-21T07:41:29.849Z,18.70
2022-11-21T07:43:56.690Z,16.60
2022-11-21T07:46:23.791Z,15.90
2022-11-21T07:48:50.995Z,14.93
2022-11-21T07:51:22.832Z,16.20
2022-11-21T07:53:51.928Z,14.27
2022-11-21T07:56:21.299Z,16.27
2022-11-21T07:58:52.927Z,15.33
2022-11-21T08:01:19.918Z,14.60
2022-11-21T08:03:46.982Z,14.63
2022-11-21T08:06:13.995Z,15.67
2022-11-21T08:08:40.896Z,17.07
2022-11-21T08:11:08.251Z,16.10
2022-11-21T08:13:35.587Z,16.00
2022-11-21T08:16:04.271Z,16.80
2022-11-21T08:18:31.725Z,16.87
2022-11-21T08:21:04.129Z,15.83
2022-11-21T08:23:32.395Z,15.10
2022-11-21T08:25:59.565Z,16.20
2022-11-21T08:28:26.434Z,15.30
2022-11-21T08:30:53.816Z,17.40
2022-11-21T08:33:23.145Z,16.40
2022-11-21T08:35:50.028Z,16.87
2022-11-21T08:38:16.955Z,17.37
2022-11-21T08:40:43.910Z,16.00
2022-11-21T08:43:10.784Z,16.30
2022-11-21T08:45:41.914Z,15.40
2022-11-21T08:48:12.249Z,16.63
2022-11-21T08:50:39.464Z,16.33
2022-11-21T08:53:06.300Z,15.43
2022-11-21T08:55:37.721Z,14.50
2022-11-21T08:58:07.014Z,15.47
2022-11-21T09:00:34.000Z,15.73
2022-11-21T09:03:05.586Z,15.43
2022-11-21T09:05:33.916Z,15.33
2022-11-21T09:08:00.738Z,16.10
2022-11-21T09:10:35.018Z,15.23
2022-11-21T09:13:04.289Z,15.80
2022-11-21T09:15:50.718Z,16.33
2022-11-21T09:18:17.553Z,15.13
2022-11-21T09:20:45.070Z,15.63
2022-11-21T09:23:16.472Z,15.10
2022-11-21T09:25:47.163Z,15.50
2022-11-21T09:28:15.007Z,14.57
2022-11-21T09:30:44.484Z,14.80
2022-11-21T09:33:14.382Z,14.77
2022-11-21T09:35:48.153Z,14.87
2022-11-21T09:38:18.550Z,15.90
2022-11-21T09:40:50.214Z,15.10
2022-11-21T09:43:38.738Z,13.07
2022-11-21T09:46:16.635Z,14.03
2022-11-21T09:49:02.904Z,14.30
2022-11-21T09:51:32.658Z,15.40
2022-11-21T09:54:13.158Z,14.40
2022-11-21T09:56:44.679Z,14.27
2022-11-21T09:59:32.634Z,14.07
2022-11-21T10:02:00.993Z,14.67
2022-11-21T10:04:53.041Z,14.23
2022-11-21T10:07:29.991Z,14.63
2022-11-21T10:10:07.312Z,14.40
2022-11-21T10:13:23.516Z,15.27
2022-11-21T10:15:57.970Z,15.37
2022-11-21T10:18:56.859Z,15.33
2022-11-21T10:21:39.541Z,14.13
2022-11-21T10:24:13.502Z,14.53
2022-11-21T10:27:26.061Z,14.00
2022-11-21T10:30:22.063Z,13.80
2022-11-21T10:33:02.051Z,13.30
2022-11-21T10:36:05.316Z,14.20
2022-11-21T10:38:39.143Z,13.27
2022-11-21T10:41:47.038Z,10.73
2022-11-21T10:44:47.487Z,12.30
2022-11-21T10:47:35.496Z,13.20
2022-11-21T10:50:20.752Z,13.43
2022-11-21T10:53:24.779Z,15.33
2022-11-21T10:56:12.709Z,12.37
2022-11-21T10:59:00.524Z,12.00
2022-11-21T11:01:34.176Z,12.10
2022-11-21T11:04:43.995Z,13.17
2022-11-21T11:07:23.184Z,12.20
2022-11-21T11:09:53.612Z,12.93
2022-11-21T11:12:47.456Z,12.33
2022-11-21T11:15:29.521Z,11.80
2022-11-21T11:18:09.423Z,12.90
2022-11-21T11:20:44.891Z,57.87
2022-11-21T11:23:21.049Z,11.93
2022-11-21T11:25:54.986Z,10.30
2022-11-21T11:28:25.490Z,13.00
2022-11-21T11:30:59.959Z,10.80
2022-11-21T11:33:39.353Z,11.13
2022-11-21T11:36:33.393Z,10.00
2022-11-21T11:39:11.417Z,9.63
2022-11-21T11:42:37.361Z,10.63
2022-11-21T11:45:31.540Z,10.00
2022-11-21T11:48:08.812Z,10.77
2022-11-21T11:50:41.905Z,10.10
2022-11-21T11:53:17.966Z,10.70
2022-11-21T11:55:58.228Z,9.97
2022-11-21T11:58:50.767Z,10.30
2022-11-21T12:01:44.533Z,10.20
2022-11-21T12:04:23.860Z,10.57
2022-11-21T12:10:16.617Z,9.23
2022-11-21T12:12:52.949Z,9.20
2022-11-21T12:15:49.827Z,9.27
2022-11-21T12:18:22.254Z,7.93
2022-11-21T12:21:15.036Z,8.10
2022-11-21T12:23:55.845Z,7.90
2022-11-21T12:26:47.104Z,7.27
2022-11-21T12:29:38.069Z,7.43
2022-11-21T12:32:17.222Z,6.47
2022-11-21T12:35:17.604Z,6.10
2022-11-21T12:37:59.953Z,6.97
2022-11-21T12:41:26.550Z,7.40
2022-11-21T12:44:10.849Z,5.63
2022-11-21T12:47:18.260Z,6.70
2022-11-21T12:50:35.479Z,5.80
2022-11-21T12:53:38.960Z,6.17
2022-11-21T12:56:29.027Z,7.30
2022-11-21T12:59:00.670Z,7.20
2022-11-21T13:01:58.850Z,7.03
2022-11-21T13:04:35.427Z,6.00
2022-11-21T13:07:06.157Z,5.47
2022-11-21T13:09:45.173Z,5.37
2022-11-21T13:12:33.018Z,6.03
2022-11-21T13:15:28.434Z,5.70
2022-11-21T13:18:06.017Z,5.60
2022-11-21T13:20:40.421Z,5.67
2022-11-21T13:23:36.727Z,5.50
2022-11-21T13:26:30.093Z,4.53
2022-11-21T13:29:17.051Z,7.10
2022-11-21T13:31:46.267Z,5.57
2022-11-21T13:34:31.506Z,6.33
2022-11-21T13:37:04.206Z,5.33
2022-11-21T13:39:35.919Z,5.20
2022-11-21T13:42:27.458Z,5.33
2022-11-21T13:44:54.870Z,5.40
2022-11-21T13:47:56.341Z,5.40
2022-11-21T13:51:21.767Z,4.47
2022-11-21T13:54:25.607Z,6.73
2022-11-21T13:57:11.125Z,5.70
2022-11-21T14:00:20.372Z,5.57
2022-11-21T14:03:24.211Z,5.50
2022-11-21T14:06:36.109Z,5.90
2022-11-21T14:09:30.494Z,5.77
2022-11-21T14:12:03.076Z,6.10
2022-11-21T14:14:43.967Z,6.07
2022-11-21T14:17:50.616Z,5.90
2022-11-21T14:20:50.132Z,7.10
2022-11-21T14:23:26.160Z,6.60
2022-11-21T14:26:05.010Z,6.53
2022-11-21T14:28:38.393Z,6.70
2022-11-21T14:31:14.013Z,7.30
2022-11-21T14:33:48.668Z,6.87
2022-11-21T14:36:25.952Z,7.07
2022-11-21T14:39:35.434Z,5.80
2022-11-21T14:42:01.250Z,6.83
2022-11-21T14:44:28.440Z,8.10
2022-11-21T14:47:18.463Z,6.77
2022-11-21T14:49:55.149Z,7.97
2022-11-21T14:52:27.665Z,6.50
2022-11-21T14:55:29.277Z,8.97
2022-11-21T14:57:54.893Z,6.67
2022-11-21T15:03:23.273Z,6.33
2022-11-21T15:06:04.719Z,6.50
2022-11-21T15:11:27.610Z,6.23
2022-11-21T15:14:17.834Z,6.60
2022-11-21T15:16:53.583Z,5.80
2022-11-21T15:19:24.184Z,7.57
2022-11-21T15:21:56.788Z,7.70
2022-11-21T15:24:32.455Z,5.80
2022-11-21T15:27:01.644Z,7.07
2022-11-21T15:29:32.397Z,6.97
2022-11-21T15:32:16.827Z,7.40
2022-11-21T15:35:36.863Z,6.70
2022-11-21T15:38:31.317Z,7.30
2022-11-21T15:41:10.585Z,7.20
2022-11-21T15:43:46.383Z,7.17
2022-11-21T15:46:30.700Z,8.40
2022-11-21T15:49:31.028Z,8.50
2022-11-21T15:52:06.589Z,9.13
2022-11-21T15:54:34.514Z,9.40
2022-11-21T15:57:04.435Z,11.77
2022-11-21T15:59:31.849Z,11.93
2022-11-21T16:02:01.043Z,11.97
2022-11-21T16:04:28.189Z,13.40
2022-11-21T16:07:00.354Z,13.70
2022-11-21T16:09:29.739Z,14.23
2022-11-21T16:11:56.943Z,13.80
2022-11-21T16:14:25.958Z,14.80
2022-11-21T16:16:52.852Z,15.73
2022-11-21T16:19:21.760Z,14.47
2022-11-21T16:21:51.687Z,15.73
2022-11-21T16:24:18.639Z,15.83
2022-11-21T16:26:53.350Z,17.20
2022-11-21T16:29:20.425Z,16.93
2022-11-21T16:31:49.907Z,17.80
2022-11-21T16:34:24.964Z,17.70
2022-11-21T16:36:55.191Z,19.87
2022-11-21T16:39:25.067Z,20.60
2022-11-21T16:41:52.025Z,20.73
2022-11-21T16:44:18.970Z,21.30
2022-11-21T16:46:51.603Z,22.10
2022-11-21T16:49:25.580Z,23.73
2022-11-21T16:51:52.458Z,24.70
2022-11-21T16:54:22.094Z,26.60
2022-11-21T16:56:52.406Z,26.47
2022-11-21T16:59:21.575Z,27.37
2022-11-21T17:01:51.427Z,26.60
2022-11-21T17:04:20.943Z,28.40
2022-11-21T17:06:50.067Z,24.10
2022-11-21T17:09:17.351Z,27.03
2022-11-21T17:11:46.358Z,26.70
2022-11-21T17:14:15.532Z,25.73
2022-11-21T17:16:42.403Z,22.40
2022-11-21T17:19:17.340Z,23.00
2022-11-21T17:21:44.216Z,23.83
2022-11-21T17:24:13.574Z,23.00
2022-11-21T17:26:40.482Z,20.70
2022-11-21T17:29:07.640Z,21.47
2022-11-21T17:31:34.697Z,20.27
2022-11-21T17:34:07.222Z,20.80
2022-11-21T17:36:34.644Z,20.23
2022-11-21T17:39:01.986Z,20.77
2022-11-21T17:41:28.891Z,19.03
2022-11-21T17:44:03.831Z,21.10
2022-11-21T17:46:30.868Z,21.40
2022-11-21T17:48:59.296Z,20.23
2022-11-21T17:51:33.459Z,21.53
2022-11-21T17:54:03.826Z,22.20
2022-11-21T17:56:39.790Z,20.63
2022-11-21T17:59:15.004Z,22.50
2022-11-21T18:01:42.657Z,20.20
2022-11-21T18:04:15.231Z,21.97
2022-11-21T18:06:42.464Z,21.70
2022-11-21T18:09:13.135Z,22.97
2022-11-21T18:11:40.871Z,19.07
2022-11-21T18:14:10.714Z,21.23
2022-11-21T18:16:39.506Z,21.30
2022-11-21T18:19:07.509Z,21.50
2022-11-21T18:21:36.226Z,19.90
2022-11-21T18:24:03.379Z,22.10
2022-11-21T18:26:33.855Z,22.00
2022-11-21T18:29:35.568Z,20.80
2022-11-21T18:31:55.568Z,23.03
2022-11-21T18:34:25.524Z,23.37
2022-11-21T18:36:53.672Z,21.73
2022-11-21T18:39:23.092Z,21.37
2022-11-21T18:41:50.917Z,19.90
2022-11-21T18:44:22.608Z,21.27
2022-11-21T18:46:49.935Z,20.10
2022-11-21T18:49:19.454Z,23.37
2022-11-21T18:51:46.528Z,19.53
2022-11-21T18:54:13.494Z,18.80
2022-11-21T18:56:40.648Z,19.10
2022-11-21T18:59:10.356Z,18.50
2022-11-21T19:01:39.840Z,16.60
2022-11-21T19:04:07.219Z,15.60
2022-11-21T19:06:36.290Z,18.37
2022-11-21T19:09:04.062Z,17.20
2022-11-21T19:11:31.027Z,17.27
2022-11-21T19:14:00.576Z,15.53
2022-11-21T19:16:33.846Z,16.87
2022-11-21T19:21:48.658Z,14.87
2022-11-21T19:24:16.674Z,14.83
2022-11-21T19:26:43.570Z,14.77
2022-11-21T19:29:13.122Z,14.80
2022-11-21T19:31:45.995Z,15.13
2022-11-21T19:34:17.061Z,14.07
2022-11-21T19:36:45.368Z,13.73
2022-11-21T19:39:17.494Z,14.17
2022-11-21T19:41:44.521Z,16.37
2022-11-21T19:44:11.604Z,16.27
2022-11-21T19:46:39.903Z,17.97
2022-11-21T19:49:14.137Z,17.40
2022-11-21T19:51:44.783Z,16.97
2022-11-21T19:54:13.511Z,16.53
2022-11-21T19:56:40.617Z,15.47
2022-11-21T19:59:07.717Z,15.50
2022-11-21T20:01:35.555Z,15.83
2022-11-21T20:04:05.120Z,17.10
2022-11-21T20:06:39.023Z,17.30
2022-11-21T20:09:18.417Z,16.27
2022-11-21T20:11:51.853Z,17.07
2022-11-21T20:14:24.272Z,15.40
2022-11-21T20:16:54.359Z,16.40
2022-11-21T20:19:24.603Z,16.50
2022-11-21T20:21:54.848Z,16.77
2022-11-21T20:24:23.794Z,16.20
2022-11-21T20:26:50.758Z,16.50
2022-11-21T20:29:20.252Z,16.73
2022-11-21T20:31:48.514Z,16.40
2022-11-21T20:34:18.043Z,15.93
2022-11-21T20:36:48.146Z,16.73
2022-11-21T20:39:19.593Z,16.37
2022-11-21T20:41:48.070Z,17.33
2022-11-21T20:47:08.718Z,17.00
2022-11-21T20:49:36.432Z,13.13
2022-11-21T20:54:52.781Z,16.40
2022-11-21T20:57:19.646Z,14.90
2022-11-21T20:59:46.572Z,15.33
2022-11-21T21:02:15.730Z,15.43
2022-11-21T21:04:42.976Z,15.50
2022-11-21T21:07:10.268Z,15.53
2022-11-21T21:09:39.965Z,14.77
2022-11-21T21:12:07.069Z,14.40
2022-11-21T21:14:38.891Z,14.00
2022-11-21T21:17:06.013Z,15.00
2022-11-21T21:19:33.115Z,15.00
2022-11-21T21:22:02.284Z,14.70
2022-11-21T21:24:29.218Z,13.20
2022-11-21T21:26:56.129Z,13.07
2022-11-21T21:29:23.205Z,14.80
2022-11-21T21:31:51.934Z,13.57
2022-11-21T21:34:25.654Z,14.37
2022-11-21T21:36:52.531Z,13.10
2022-11-21T21:39:19.630Z,13.90
2022-11-21T21:41:48.614Z,13.90
2022-11-21T21:44:16.481Z,13.10
2022-11-21T21:46:45.721Z,13.87
2022-11-21T21:49:13.219Z,13.17
2022-11-21T21:51:43.054Z,13.70
2022-11-21T21:54:21.724Z,14.07
2022-11-21T21:56:50.261Z,13.80
2022-11-21T21:59:18.427Z,14.27
2022-11-21T22:01:46.083Z,13.20
2022-11-21T22:04:17.797Z,13.90
2022-11-21T22:06:47.839Z,13.07
2022-11-21T22:09:14.736Z,12.90
2022-11-21T22:11:41.668Z,13.90
2022-11-21T22:14:18.167Z,12.80
2022-11-21T22:16:45.129Z,14.57
2022-11-21T22:19:12.132Z,14.33
2022-11-21T22:21:39.570Z,13.37
2022-11-21T22:24:29.533Z,12.20
2022-11-21T22:26:59.141Z,13.67
2022-11-21T22:29:28.571Z,14.47
2022-11-21T22:32:00.125Z,13.70
2022-11-21T22:34:32.089Z,13.77
2022-11-21T22:36:59.166Z,14.53
2022-11-21T22:39:26.268Z,13.47
2022-11-21T22:41:58.435Z,14.20
2022-11-21T22:44:27.044Z,13.80
2022-11-21T22:46:56.208Z,15.20
2022-11-21T22:49:23.059Z,15.00
2022-11-21T22:51:50.073Z,15.17
2022-11-21T22:54:17.501Z,15.23
2022-11-21T22:56:44.389Z,14.80
2022-11-21T22:59:14.247Z,13.40
2022-11-21T23:01:41.210Z,15.20
2022-11-21T23:04:13.370Z,14.60
2022-11-21T23:06:44.399Z,15.43
2022-11-21T23:09:11.278Z,15.70
2022-11-21T23:11:41.237Z,15.40
2022-11-21T23:14:08.223Z,16.47
2022-11-21T23:16:35.340Z,15.43
2022-11-21T23:19:02.327Z,16.33
2022-11-21T23:21:30.270Z,15.57
2022-11-21T23:23:57.210Z,14.23
2022-11-21T23:26:24.297Z,15.77
2022-11-21T23:28:51.184Z,14.70
2022-11-21T23:31:20.166Z,16.23
2022-11-21T23:33:49.122Z,15.93
2022-11-21T23:36:18.175Z,15.47
2022-11-21T23:38:48.159Z,14.97
2022-11-21T23:41:17.125Z,15.67
2022-11-21T23:43:44.045Z,15.53
2022-11-21T23:46:13.262Z,15.17
2022-11-21T23:48:40.247Z,14.83
2022-11-21T23:51:09.651Z,16.50
2022-11-21T23:53:38.705Z,14.80
2022-11-21T23:56:08.311Z,15.40
2022-11-21T23:58:35.254Z,16.20
